Terminal Aerodrome Forecast
Issued by NWS

Home | Current Version | Previous Version | Text Only | Print | Product List | Glossary On
Versions: 1 2 3 4 5 6 7 8 9 10 11 12 13 14 15 16 17
000
FTUS44 KJAN 210552
TAFGTR
TAF
KGTR 210552Z 2106/2206 14010KT P6SM OVC250
     FM210900 15010KT P6SM SHRA BKN050 OVC250
     FM211200 14009KT 3SM SHRA BR BKN025 OVC050
     FM212300 11006KT 5SM SHRA BKN008 OVC090
     FM220100 09005KT 5SM BR VCSH BKN003 OVC025=

USA.gov is the U.S. government's official web portal to all federal, state and local government web resources and services.